Findhorn, United Kingdom
Current Conditions -  °F | °C
As of 3:50 PM on Sunday 21 Dec 2014 (Local Time) from EGQK Reporting Station
Moderate Rain Moderate Rain  
Wind Chill: 50°   Ceiling: 5000
Heat Index: 50°   Visibility: 5mi
Dew Point: 48°   Wind: 13mph
Humidity: 94%   Direction: 230°SW
Pressure: 29.53"   Gusts: NA
Location:  57.66°N, 3.61°W
Report Text: EGQK 211550Z AUTO 23011KT 8000 RA BKN050/// 10/09 Q1000
Loading
Personal Weather Stations






























Interactive Weather Map New forecast layout! Learn more

10-Day Weather Forecast

Advertisements
Track Severe Weather on mobile